Time;durP1;ratioP1;P1;durP2;ratioP2;P2;SDS_P1;SDS_P2;PMS_P1;PMS_P2;Temp;Humidity;BMP_temperature;BMP_pressure;BME280_temperature;BME280_humidity;BME280_pressure;Samples;Min_cycle;Max_cycle;Signal;HPM_P1;HPM_P2
2024/03/17 00:01:09;;;;;;;18.70;5.53;;;6.50;99.90;;;;;;5077065;28;20267;-85
2024/03/17 00:03:35;;;;;;;21.50;6.47;;;6.50;99.90;;;;;;5076697;28;20191;-86
2024/03/17 00:06:01;;;;;;;19.80;6.23;;;6.60;99.90;;;;;;5058601;28;20180;-85
2024/03/17 00:08:27;;;;;;;20.92;6.15;;;6.50;99.90;;;;;;5076600;28;20768;-85
2024/03/17 00:10:54;;;;;;;19.35;5.97;;;6.50;99.90;;;;;;5076634;28;20230;-85
2024/03/17 00:13:21;;;;;;;19.25;6.40;;;6.50;99.90;;;;;;5076187;28;20168;-84
2024/03/17 00:15:48;;;;;;;18.02;5.95;;;6.50;99.90;;;;;;5058367;28;20168;-85
2024/03/17 00:18:14;;;;;;;17.02;5.22;;;6.50;99.90;;;;;;5076699;28;20247;-85
2024/03/17 00:20:40;;;;;;;18.80;5.78;;;6.50;99.90;;;;;;5058420;28;20195;-85
2024/03/17 00:23:06;;;;;;;17.97;5.70;;;6.60;99.90;;;;;;5076978;28;20172;-85
2024/03/17 00:25:33;;;;;;;18.92;5.88;;;6.60;99.90;;;;;;5077835;28;20171;-86
2024/03/17 00:28:00;;;;;;;21.90;6.63;;;6.50;99.90;;;;;;5083178;28;20160;-86
2024/03/17 00:30:25;;;;;;;19.98;6.78;;;6.50;99.90;;;;;;5064175;28;20245;-87
2024/03/17 00:32:51;;;;;;;19.07;6.10;;;6.40;99.90;;;;;;5064957;28;20164;-86
2024/03/17 00:35:20;;;;;;;17.20;5.77;;;6.40;99.90;;;;;;5083383;28;20578;-86
2024/03/17 00:37:50;;;;;;;18.30;6.05;;;6.40;99.90;;;;;;5065105;28;20169;-86
2024/03/17 00:40:17;;;;;;;22.83;6.00;;;6.40;99.90;;;;;;5064734;28;20184;-86
2024/03/17 00:42:44;;;;;;;19.88;5.85;;;6.30;99.90;;;;;;5083031;28;20175;-86
2024/03/17 00:45:11;;;;;;;27.42;7.97;;;6.30;99.90;;;;;;5064488;28;20168;-86
2024/03/17 00:47:37;;;;;;;18.35;6.03;;;6.40;99.90;;;;;;5064751;28;20687;-86
2024/03/17 00:50:04;;;;;;;23.75;7.35;;;6.40;99.90;;;;;;5082515;28;20192;-86
2024/03/17 00:52:30;;;;;;;22.13;6.05;;;6.40;99.90;;;;;;5082644;28;20180;-86
2024/03/17 00:54:56;;;;;;;19.00;6.30;;;6.40;99.90;;;;;;5082507;28;20167;-86
2024/03/17 00:57:21;;;;;;;20.90;7.07;;;6.40;99.90;;;;;;5064972;28;20411;-86
2024/03/17 00:59:47;;;;;;;20.03;6.00;;;6.40;99.90;;;;;;5082316;28;20168;-87
2024/03/17 01:02:16;;;;;;;23.77;7.23;;;6.40;99.90;;;;;;5064231;28;20192;-87
2024/03/17 01:04:43;;;;;;;22.70;6.82;;;6.40;99.90;;;;;;5064538;28;20191;-86
2024/03/17 01:07:09;;;;;;;20.45;6.68;;;6.40;99.90;;;;;;5064114;28;20192;-86
2024/03/17 01:09:35;;;;;;;18.45;6.25;;;6.40;99.90;;;;;;5082558;28;20157;-86
2024/03/17 01:12:00;;;;;;;21.07;7.10;;;6.40;99.90;;;;;;5081884;28;20250;-86
2024/03/17 01:14:27;;;;;;;20.50;6.00;;;6.40;99.90;;;;;;5081178;28;20431;-86
2024/03/17 01:16:54;;;;;;;16.85;5.53;;;6.30;99.90;;;;;;5081390;28;20165;-86
2024/03/17 01:19:20;;;;;;;18.58;6.57;;;6.30;99.90;;;;;;5081937;28;20161;-86
2024/03/17 01:21:46;;;;;;;20.17;6.45;;;6.30;99.90;;;;;;5064097;28;20259;-86
2024/03/17 01:24:11;;;;;;;19.63;5.60;;;6.40;99.90;;;;;;5063781;28;20199;-86
2024/03/17 01:26:37;;;;;;;22.67;6.20;;;6.40;99.90;;;;;;5081952;28;20169;-86
2024/03/17 01:29:03;;;;;;;24.80;6.37;;;6.40;99.90;;;;;;5065179;28;20196;-86
2024/03/17 01:31:29;;;;;;;22.70;6.07;;;6.40;99.90;;;;;;5064198;28;20276;-86
2024/03/17 01:33:54;;;;;;;18.13;6.43;;;6.40;99.90;;;;;;5063316;28;20415;-86
2024/03/17 01:36:20;;;;;;;18.27;6.00;;;6.40;99.90;;;;;;5081574;28;20399;-86
2024/03/17 01:38:46;;;;;;;17.63;5.80;;;6.40;99.90;;;;;;5063038;28;20183;-86
2024/03/17 01:41:13;;;;;;;17.55;6.22;;;6.40;99.90;;;;;;5063907;28;20196;-86
2024/03/17 01:43:38;;;;;;;18.40;5.90;;;6.30;99.90;;;;;;5059328;28;20175;-86
2024/03/17 01:46:05;;;;;;;18.93;6.00;;;6.40;99.90;;;;;;5059193;28;20633;-85
2024/03/17 01:48:31;;;;;;;22.13;6.45;;;6.40;99.90;;;;;;5075709;28;20252;-86
2024/03/17 01:50:57;;;;;;;18.15;6.43;;;6.40;99.90;;;;;;5057704;28;20254;-85
2024/03/17 01:53:25;;;;;;;26.27;6.05;;;6.50;99.90;;;;;;5075857;28;20164;-85
2024/03/17 01:55:55;;;;;;;19.67;6.20;;;6.40;99.90;;;;;;5057699;28;20168;-85
2024/03/17 01:58:25;;;;;;;21.13;6.00;;;6.30;99.90;;;;;;5075395;28;20261;-85
2024/03/17 02:00:51;;;;;;;19.77;5.82;;;6.30;99.90;;;;;;5075313;28;20229;-85
2024/03/17 02:03:17;;;;;;;19.33;5.80;;;6.30;99.90;;;;;;5075110;28;20160;-85
2024/03/17 02:05:44;;;;;;;21.80;6.00;;;6.30;99.90;;;;;;5075560;28;20179;-85
2024/03/17 02:08:10;;;;;;;19.00;5.88;;;6.30;99.90;;;;;;5075299;28;20406;-85
2024/03/17 02:10:37;;;;;;;17.70;6.50;;;6.20;99.90;;;;;;5040689;28;20207;-85
2024/03/17 02:13:04;;;;;;;19.38;6.50;;;6.20;99.90;;;;;;5075244;28;20163;-85
2024/03/17 02:15:30;;;;;;;19.73;5.90;;;6.20;99.90;;;;;;5057502;28;20167;-85
2024/03/17 02:17:56;;;;;;;21.83;6.10;;;6.10;99.90;;;;;;5074978;28;20161;-85
2024/03/17 02:20:54;;;;;;;19.77;5.90;;;6.10;99.90;;;;;;5074708;28;20161;-85
2024/03/17 02:23:11;;;;;;;23.98;5.97;;;6.00;99.90;;;;;;5075131;28;20506;-85
2024/03/17 02:25:37;;;;;;;17.38;5.90;;;5.90;99.90;;;;;;5058348;28;20168;-86
2024/03/17 02:28:02;;;;;;;17.60;5.10;;;5.90;99.90;;;;;;5058333;28;20168;-85
2024/03/17 02:30:28;;;;;;;19.17;5.95;;;5.90;99.90;;;;;;5076675;28;20207;-85
2024/03/17 02:32:55;;;;;;;18.57;5.30;;;5.90;99.90;;;;;;5076396;28;20169;-86
2024/03/17 02:35:26;;;;;;;18.40;5.93;;;5.80;99.90;;;;;;5076108;28;20410;-86
2024/03/17 02:37:51;;;;;;;22.13;6.05;;;5.80;99.90;;;;;;5058946;28;20168;-85
2024/03/17 02:40:18;;;;;;;17.50;5.90;;;5.70;99.90;;;;;;5076345;28;20251;-86
2024/03/17 02:42:45;;;;;;;18.48;5.90;;;5.60;99.90;;;;;;5058843;28;20165;-85
2024/03/17 02:45:12;;;;;;;19.20;6.60;;;5.60;99.90;;;;;;5058376;28;20164;-86
2024/03/17 02:47:38;;;;;;;17.77;5.85;;;5.50;99.90;;;;;;5057631;28;20247;-85
2024/03/17 02:50:04;;;;;;;18.92;5.30;;;5.50;99.90;;;;;;5075572;28;20204;-86
2024/03/17 02:52:30;;;;;;;19.95;5.70;;;5.50;99.90;;;;;;5075722;28;20188;-85
2024/03/17 02:54:56;;;;;;;18.50;5.63;;;5.50;99.90;;;;;;5057795;28;20255;-85
2024/03/17 02:57:24;;;;;;;18.97;5.20;;;5.50;99.90;;;;;;5078539;28;20168;-87
2024/03/17 02:59:51;;;;;;;17.10;6.00;;;5.40;99.90;;;;;;5063877;28;20172;-86
2024/03/17 03:02:17;;;;;;;18.23;5.38;;;5.40;99.90;;;;;;5063197;28;20272;-87
2024/03/17 03:04:43;;;;;;;20.80;5.97;;;5.40;99.90;;;;;;5063559;28;20192;-87
2024/03/17 03:07:09;;;;;;;17.63;5.40;;;5.40;99.90;;;;;;5082109;28;20456;-87
2024/03/17 03:09:34;;;;;;;17.57;5.10;;;5.40;99.90;;;;;;5081708;28;20180;-86
2024/03/17 03:12:02;;;;;;;27.90;6.00;;;5.40;99.90;;;;;;5081681;28;20300;-87
2024/03/17 03:14:28;;;;;;;21.95;6.13;;;5.40;99.90;;;;;;5063767;28;20243;-87
2024/03/17 03:16:58;;;;;;;18.27;6.00;;;5.40;99.90;;;;;;5064133;28;20642;-87
2024/03/17 03:19:24;;;;;;;21.33;6.13;;;5.40;99.90;;;;;;5081731;28;20156;-87
2024/03/17 03:21:50;;;;;;;16.52;4.50;;;5.40;99.90;;;;;;5063479;28;20206;-86
2024/03/17 03:24:17;;;;;;;18.23;6.22;;;5.40;99.90;;;;;;5080822;28;20169;-86
2024/03/17 03:26:43;;;;;;;17.23;4.88;;;5.30;99.90;;;;;;5063237;28;20218;-86
2024/03/17 03:29:10;;;;;;;19.58;6.38;;;5.30;99.90;;;;;;5063070;28;20176;-86
2024/03/17 03:31:36;;;;;;;17.27;4.80;;;5.30;99.90;;;;;;5063231;28;20200;-87
2024/03/17 03:34:07;;;;;;;17.65;5.50;;;5.30;99.90;;;;;;5081197;28;20640;-86
2024/03/17 03:36:34;;;;;;;17.55;4.35;;;5.30;99.90;;;;;;5063747;28;20246;-87
2024/03/17 03:39:00;;;;;;;20.65;5.55;;;5.20;99.90;;;;;;5065649;28;20202;-87
2024/03/17 03:41:26;;;;;;;19.60;7.23;;;5.20;99.90;;;;;;5066042;28;20184;-86
2024/03/17 03:43:52;;;;;;;17.08;5.38;;;5.30;99.90;;;;;;5084956;28;20186;-87
2024/03/17 03:46:20;;;;;;;18.67;5.30;;;5.30;99.90;;;;;;5066948;28;20212;-87
2024/03/17 03:48:46;;;;;;;17.45;5.20;;;5.30;99.90;;;;;;5065979;28;20184;-86
2024/03/17 03:51:11;;;;;;;17.80;5.13;;;5.30;99.90;;;;;;5066946;28;20196;-86
2024/03/17 03:53:38;;;;;;;18.83;6.03;;;5.20;99.90;;;;;;5066819;28;20214;-86
2024/03/17 03:56:07;;;;;;;18.80;4.93;;;5.20;99.90;;;;;;5084724;28;20197;-87
2024/03/17 03:58:38;;;;;;;25.42;5.38;;;5.20;99.90;;;;;;5066855;28;20173;-87
2024/03/17 04:01:07;;;;;;;18.27;5.03;;;5.20;99.90;;;;;;5084973;28;20184;-87
2024/03/17 04:03:34;;;;;;;17.85;5.07;;;5.20;99.90;;;;;;5066375;28;20172;-86
2024/03/17 04:06:08;;;;;;;21.20;5.85;;;5.20;99.90;;;;;;5084661;28;20172;-87
2024/03/17 04:08:35;;;;;;;19.10;4.75;;;5.20;99.90;;;;;;5084219;28;20168;-86
2024/03/17 04:11:02;;;;;;;16.60;5.43;;;5.10;99.90;;;;;;5083825;28;20211;-86
2024/03/17 04:13:31;;;;;;;17.85;5.05;;;5.10;99.90;;;;;;5061475;28;20706;-86
2024/03/17 04:15:58;;;;;;;16.27;4.93;;;5.10;99.90;;;;;;5060707;28;20165;-86
2024/03/17 04:18:30;;;;;;;16.85;5.00;;;5.10;99.90;;;;;;5078500;28;20503;-85
2024/03/17 04:20:56;;;;;;;15.60;4.40;;;5.10;99.90;;;;;;5078079;28;20602;-87
2024/03/17 04:23:22;;;;;;;17.27;5.07;;;5.20;99.90;;;;;;5078410;28;20261;-86
2024/03/17 04:25:51;;;;;;;19.40;5.20;;;5.30;99.90;;;;;;5078322;28;20195;-86
2024/03/17 04:28:16;;;;;;;16.48;4.63;;;5.30;99.90;;;;;;5078148;28;20175;-86
2024/03/17 04:30:43;;;;;;;17.03;4.93;;;5.30;99.90;;;;;;5059993;28;20204;-86
2024/03/17 04:33:11;;;;;;;17.40;4.75;;;5.40;99.90;;;;;;5078159;28;20227;-85
2024/03/17 04:35:41;;;;;;;15.38;4.50;;;5.30;99.90;;;;;;5078535;28;20160;-85
2024/03/17 04:38:07;;;;;;;21.60;5.10;;;5.40;99.90;;;;;;5060142;28;20255;-86
2024/03/17 04:40:33;;;;;;;16.57;3.77;;;5.40;99.90;;;;;;5059924;28;20732;-85
2024/03/17 04:42:59;;;;;;;16.35;4.30;;;5.40;99.90;;;;;;5060215;28;20807;-85
2024/03/17 04:45:26;;;;;;;15.93;4.27;;;5.50;99.90;;;;;;5060183;28;20182;-86
2024/03/17 04:47:51;;;;;;;17.60;4.18;;;5.50;99.90;;;;;;5077901;28;20503;-85
2024/03/17 04:50:18;;;;;;;22.37;4.43;;;5.50;99.90;;;;;;5077718;28;20215;-85
2024/03/17 04:52:43;;;;;;;18.13;4.03;;;5.50;99.90;;;;;;5077918;28;20403;-86
2024/03/17 04:55:09;;;;;;;15.30;3.87;;;5.60;99.90;;;;;;5077923;28;20634;-86
2024/03/17 04:57:35;;;;;;;17.17;4.20;;;5.60;99.90;;;;;;5077984;28;20171;-85
2024/03/17 05:00:05;;;;;;;18.25;4.55;;;5.60;99.90;;;;;;5077459;28;20649;-85
2024/03/17 05:02:32;;;;;;;16.42;3.85;;;5.60;99.90;;;;;;5059797;28;20218;-86
2024/03/17 05:04:58;;;;;;;20.45;4.78;;;5.60;99.90;;;;;;5077857;28;20156;-85
2024/03/17 05:07:24;;;;;;;20.80;4.17;;;5.60;99.90;;;;;;5077743;28;20649;-86
2024/03/17 05:09:50;;;;;;;15.00;3.87;;;5.60;99.90;;;;;;5059829;28;20460;-85
2024/03/17 05:12:16;;;;;;;15.70;4.60;;;5.60;99.90;;;;;;5059677;28;20266;-86
2024/03/17 05:14:41;;;;;;;19.00;4.65;;;5.60;99.90;;;;;;5077308;28;20168;-86
2024/03/17 05:17:07;;;;;;;16.00;4.70;;;5.60;99.90;;;;;;5077723;28;20169;-85
2024/03/17 05:19:32;;;;;;;17.63;4.67;;;5.60;99.90;;;;;;5077579;28;20186;-86
2024/03/17 05:21:59;;;;;;;16.40;4.40;;;5.70;99.90;;;;;;5059516;28;20324;-85
2024/03/17 05:24:25;;;;;;;16.58;5.07;;;5.70;99.90;;;;;;5059251;28;20181;-85
2024/03/17 05:26:50;;;;;;;16.63;4.70;;;5.60;99.90;;;;;;5083926;28;20199;-87
2024/03/17 05:29:16;;;;;;;16.83;4.67;;;5.60;99.90;;;;;;5085135;28;20226;-87
2024/03/17 05:31:43;;;;;;;21.83;5.57;;;5.60;99.90;;;;;;5084027;28;20210;-87
2024/03/17 05:34:10;;;;;;;17.25;4.93;;;5.60;99.90;;;;;;5084055;28;20219;-87
2024/03/17 05:36:36;;;;;;;18.08;4.90;;;5.60;99.90;;;;;;5065897;28;20176;-87
2024/03/17 05:39:02;;;;;;;18.27;5.15;;;5.60;99.90;;;;;;5065734;28;20298;-87
2024/03/17 05:41:28;;;;;;;18.43;4.80;;;5.50;99.90;;;;;;5065983;28;20217;-87
2024/03/17 05:43:56;;;;;;;17.67;5.53;;;5.50;99.90;;;;;;5065687;28;20498;-87
2024/03/17 05:46:22;;;;;;;17.42;4.40;;;5.50;99.90;;;;;;5083109;28;20160;-87
2024/03/17 05:48:48;;;;;;;20.83;4.90;;;5.40;99.90;;;;;;5065850;28;20164;-87
2024/03/17 05:51:16;;;;;;;19.13;5.03;;;5.40;99.90;;;;;;5065064;28;20200;-87
2024/03/17 05:53:43;;;;;;;21.27;4.82;;;5.40;99.90;;;;;;5065711;28;20176;-87
2024/03/17 05:56:11;;;;;;;18.08;5.30;;;5.40;99.90;;;;;;5066320;28;20187;-87
2024/03/17 05:58:37;;;;;;;21.30;5.80;;;5.40;99.90;;;;;;5065175;28;20194;-87
2024/03/17 06:01:08;;;;;;;15.85;4.25;;;5.40;99.90;;;;;;5064918;28;20207;-87
2024/03/17 06:03:38;;;;;;;17.27;5.60;;;5.40;99.90;;;;;;5066101;28;20172;-87
2024/03/17 06:06:09;;;;;;;17.73;4.80;;;5.40;99.90;;;;;;5065397;28;20175;-87
2024/03/17 06:08:35;;;;;;;17.52;5.63;;;5.50;99.90;;;;;;5065430;28;20186;-87
2024/03/17 06:11:01;;;;;;;20.67;5.13;;;5.40;99.90;;;;;;5065171;28;20220;-87
2024/03/17 06:13:28;;;;;;;17.00;5.23;;;5.40;99.90;;;;;;5082488;28;20415;-87
2024/03/17 06:15:54;;;;;;;18.15;5.10;;;5.50;99.90;;;;;;5083074;28;20179;-87
2024/03/17 06:18:20;;;;;;;20.23;5.95;;;5.40;99.90;;;;;;5082901;28;20165;-87
2024/03/17 06:20:48;;;;;;;18.20;5.17;;;5.40;99.90;;;;;;5082169;28;20768;-87
2024/03/17 06:23:18;;;;;;;18.17;5.25;;;5.50;99.90;;;;;;5064809;28;20446;-87
2024/03/17 06:25:44;;;;;;;16.55;5.25;;;5.50;99.90;;;;;;5065319;28;20168;-87
2024/03/17 06:28:13;;;;;;;18.10;5.32;;;5.50;99.90;;;;;;5082988;28;20171;-87
2024/03/17 06:30:43;;;;;;;17.92;5.07;;;5.50;99.90;;;;;;5064922;28;20211;-87
2024/03/17 06:33:11;;;;;;;17.98;5.75;;;5.50;99.90;;;;;;5065687;28;20176;-87
2024/03/17 06:35:38;;;;;;;19.33;5.50;;;5.60;99.90;;;;;;5082867;28;20164;-87
2024/03/17 06:38:04;;;;;;;31.73;4.90;;;5.60;99.90;;;;;;5083257;28;20176;-87
2024/03/17 06:40:30;;;;;;;23.03;5.63;;;5.70;99.90;;;;;;5078928;28;20203;-86
2024/03/17 06:42:57;;;;;;;19.70;5.97;;;5.70;99.90;;;;;;5057450;28;20422;-86
2024/03/17 06:45:24;;;;;;;16.35;5.30;;;5.80;99.90;;;;;;5074874;28;20403;-86
2024/03/17 06:47:49;;;;;;;19.27;5.38;;;5.90;99.90;;;;;;5075332;28;20161;-85
2024/03/17 06:50:15;;;;;;;16.63;4.80;;;5.90;99.90;;;;;;5056743;28;20192;-85
2024/03/17 06:52:41;;;;;;;24.03;5.27;;;5.90;99.90;;;;;;5074465;28;20403;-85
2024/03/17 06:55:07;;;;;;;17.60;4.93;;;6.00;99.90;;;;;;5056397;28;20641;-85
2024/03/17 06:57:36;;;;;;;21.20;5.40;;;6.10;99.90;;;;;;5074690;28;20468;-85
2024/03/17 07:00:05;;;;;;;23.83;5.22;;;6.10;99.90;;;;;;5074273;28;20233;-85
2024/03/17 07:02:35;;;;;;;19.52;5.10;;;6.10;99.90;;;;;;5055993;28;20673;-86
2024/03/17 07:05:02;;;;;;;17.40;5.57;;;6.10;99.90;;;;;;5073810;28;20165;-85
2024/03/17 07:07:28;;;;;;;19.23;6.30;;;6.10;99.90;;;;;;5056249;28;20174;-85
2024/03/17 07:09:54;;;;;;;19.58;6.47;;;6.10;99.90;;;;;;5056047;28;20161;-85
2024/03/17 07:12:20;;;;;;;18.33;5.68;;;6.20;99.90;;;;;;5056120;28;20738;-85
2024/03/17 07:14:46;;;;;;;20.40;7.35;;;6.20;99.90;;;;;;5060335;28;20165;-85
2024/03/17 07:17:11;;;;;;;17.77;7.33;;;6.30;99.90;;;;;;5059756;28;20272;-85
2024/03/17 07:19:37;;;;;;;19.23;5.67;;;6.30;99.90;;;;;;5059928;28;20179;-85
2024/03/17 07:22:05;;;;;;;21.23;6.43;;;6.30;99.90;;;;;;5077945;28;20180;-86
2024/03/17 07:24:31;;;;;;;18.67;6.38;;;6.40;99.90;;;;;;5060159;28;20172;-85
2024/03/17 07:26:56;;;;;;;19.73;6.60;;;6.40;99.90;;;;;;5059758;28;20175;-85
2024/03/17 07:29:22;;;;;;;18.23;6.40;;;6.50;99.90;;;;;;5060691;28;20176;-85
2024/03/17 07:31:47;;;;;;;22.63;5.83;;;6.60;99.90;;;;;;5077576;28;20562;-85
2024/03/17 07:34:13;;;;;;;19.10;6.23;;;6.70;99.90;;;;;;5077886;28;20638;-85
2024/03/17 07:36:39;;;;;;;20.60;5.50;;;6.80;99.90;;;;;;5060882;28;20268;-86
2024/03/17 07:39:07;;;;;;;19.70;6.30;;;6.90;99.90;;;;;;5060777;28;20223;-85
2024/03/17 07:41:33;;;;;;;21.90;5.88;;;6.90;99.90;;;;;;5061138;28;20269;-85
2024/03/17 07:43:58;;;;;;;19.20;5.82;;;6.90;99.90;;;;;;5059401;28;20565;-85
2024/03/17 07:46:24;;;;;;;17.40;5.20;;;7.00;99.90;;;;;;5077265;28;20176;-86
2024/03/17 07:48:51;;;;;;;18.63;5.10;;;7.10;99.90;;;;;;5077423;28;20165;-86
2024/03/17 07:51:16;;;;;;;20.38;5.15;;;7.10;99.90;;;;;;5059548;28;20291;-86
2024/03/17 07:53:51;;;;;;;17.37;5.37;;;7.20;99.90;;;;;;5077675;28;20668;-86
2024/03/17 07:56:19;;;;;;;18.50;5.18;;;7.30;99.90;;;;;;5067505;28;20174;-87
2024/03/17 07:58:47;;;;;;;20.45;5.53;;;7.30;99.90;;;;;;5070113;28;20168;-87
2024/03/17 08:01:14;;;;;;;24.00;5.00;;;7.40;99.90;;;;;;5087095;28;20183;-87
2024/03/17 08:03:45;;;;;;;21.17;4.93;;;7.40;99.90;;;;;;5068996;28;20179;-87
2024/03/17 08:06:11;;;;;;;15.68;4.13;;;7.50;99.90;;;;;;5086996;28;20522;-87
2024/03/17 08:08:37;;;;;;;15.73;4.40;;;7.60;99.90;;;;;;5087518;28;20165;-87
2024/03/17 08:11:03;;;;;;;16.63;3.93;;;7.70;99.90;;;;;;5068789;28;20451;-87
2024/03/17 08:13:34;;;;;;;15.80;4.30;;;7.70;99.90;;;;;;5086667;28;20429;-87
2024/03/17 08:16:10;;;;;;;16.25;3.63;;;7.80;99.90;;;;;;5068370;28;20231;-87
2024/03/17 08:18:36;;;;;;;15.77;3.88;;;7.90;99.90;;;;;;5087240;28;20148;-87
2024/03/17 08:21:04;;;;;;;14.93;4.03;;;8.00;99.90;;;;;;5087640;28;20662;-87
2024/03/17 08:23:30;;;;;;;14.63;3.50;;;8.00;99.90;;;;;;5087480;28;20934;-87
2024/03/17 08:25:57;;;;;;;15.57;4.10;;;8.10;99.90;;;;;;5086892;28;20244;-87
2024/03/17 08:28:24;;;;;;;15.68;3.95;;;8.10;99.90;;;;;;5069151;28;20407;-87
2024/03/17 08:30:57;;;;;;;19.30;4.03;;;8.30;99.90;;;;;;5086479;28;20723;-87
2024/03/17 08:33:23;;;;;;;16.20;3.45;;;8.30;99.90;;;;;;5149451;22;21555;-86
2024/03/17 08:38:24;;;;;;;14.15;3.08;;;8.40;99.90;;;;;;5150959;22;20220;-87
2024/03/17 08:40:51;;;;;;;17.17;3.53;;;8.50;99.90;;;;;;5086344;28;20661;-87
2024/03/17 08:43:17;;;;;;;15.07;3.83;;;8.60;99.90;;;;;;5085945;28;20568;-87
2024/03/17 08:45:43;;;;;;;16.98;4.85;;;8.80;99.90;;;;;;5068384;28;20221;-86
2024/03/17 08:48:10;;;;;;;16.25;3.65;;;9.00;99.90;;;;;;5068306;28;20165;-87
2024/03/17 08:50:36;;;;;;;19.25;4.25;;;9.10;98.00;;;;;;5086007;28;20192;-87
2024/03/17 08:53:02;;;;;;;16.20;3.85;;;9.10;99.90;;;;;;5068025;28;20172;-87
2024/03/17 08:55:28;;;;;;;18.65;4.40;;;9.20;99.90;;;;;;5067404;28;20176;-86
2024/03/17 08:57:53;;;;;;;17.03;4.63;;;9.30;99.90;;;;;;5068085;28;20171;-87
2024/03/17 09:00:22;;;;;;;15.80;3.57;;;9.40;95.10;;;;;;5068005;28;20263;-87
2024/03/17 09:02:47;;;;;;;19.73;5.47;;;9.40;93.10;;;;;;5084990;28;20179;-87
2024/03/17 09:05:13;;;;;;;18.30;3.90;;;9.50;94.70;;;;;;5085774;28;20160;-87
2024/03/17 09:07:39;;;;;;;19.30;4.60;;;9.40;88.30;;;;;;5085346;28;20736;-86
2024/03/17 09:10:05;;;;;;;16.20;4.10;;;9.50;90.40;;;;;;5067144;28;20168;-87
2024/03/17 09:12:31;;;;;;;16.88;4.20;;;9.70;94.10;;;;;;5065358;28;20192;-86
2024/03/17 09:14:57;;;;;;;17.42;4.72;;;9.70;87.20;;;;;;5077119;28;20160;-85
2024/03/17 09:17:23;;;;;;;16.27;4.23;;;9.80;70.50;;;;;;5057814;28;20306;-85
2024/03/17 09:19:49;;;;;;;17.03;4.50;;;9.90;82.20;;;;;;5057694;28;20171;-85
2024/03/17 09:22:14;;;;;;;18.03;4.33;;;9.90;71.50;;;;;;5075341;28;20182;-85
2024/03/17 09:24:40;;;;;;;15.80;4.00;;;10.00;59.80;;;;;;5057710;28;20256;-86
2024/03/17 09:27:06;;;;;;;18.83;4.80;;;10.00;66.50;;;;;;5076862;28;20165;-86
2024/03/17 09:29:33;;;;;;;16.80;4.40;;;9.90;48.30;;;;;;5059725;28;20175;-85
2024/03/17 09:31:58;;;;;;;15.88;3.90;;;10.00;57.50;;;;;;5057184;28;20831;-85
2024/03/17 09:34:24;;;;;;;19.00;3.90;;;10.00;50.90;;;;;;5059174;28;20168;-85
2024/03/17 09:36:50;;;;;;;16.50;4.23;;;10.20;41.80;;;;;;5057898;28;20810;-86
2024/03/17 09:39:16;;;;;;;17.67;3.67;;;10.30;48.00;;;;;;5059207;28;20564;-85
2024/03/17 09:41:42;;;;;;;17.17;3.57;;;10.40;44.20;;;;;;5077117;28;20419;-86
2024/03/17 09:44:13;;;;;;;18.10;4.07;;;10.50;47.60;;;;;;5077427;28;20464;-86
2024/03/17 09:46:39;;;;;;;17.33;3.45;;;10.70;47.10;;;;;;5059019;28;20456;-86
2024/03/17 09:49:09;;;;;;;15.70;3.33;;;10.90;37.50;;;;;;5077315;28;20240;-86
2024/03/17 09:51:39;;;;;;;17.38;3.60;;;11.00;27.80;;;;;;5058735;28;20200;-86
2024/03/17 09:54:22;;;;;;;14.90;3.30;;;11.10;14.50;;;;;;5058800;28;20167;-86
2024/03/17 09:56:51;;;;;;;16.30;3.63;;;11.20;17.70;;;;;;5077629;28;20157;-86
2024/03/17 09:59:16;;;;;;;15.93;3.53;;;11.30;1.00;;;;;;5058869;28;20222;-85
2024/03/17 10:01:43;;;;;;;17.03;3.47;;;11.20;1.00;;;;;;5076721;28;20192;-86
2024/03/17 10:04:10;;;;;;;15.05;3.30;;;11.40;4.40;;;;;;5059464;28;20169;-86
2024/03/17 10:06:46;;;;;;;16.33;3.70;;;11.50;1.00;;;;;;5077031;28;20667;-87
2024/03/17 10:09:21;;;;;;;17.13;4.05;;;11.60;1.00;;;;;;5058770;28;20164;-86
2024/03/17 10:11:47;;;;;;;14.80;3.00;;;11.70;1.00;;;;;;5058560;28;20196;-85
2024/03/17 10:14:16;;;;;;;16.60;3.80;;;11.60;1.00;;;;;;5058803;28;20165;-86
2024/03/17 10:16:44;;;;;;;15.90;3.45;;;11.50;1.00;;;;;;5058551;28;20525;-85
2024/03/17 10:19:39;;;;;;;16.45;3.60;;;11.70;1.00;;;;;;5058539;28;20637;-87
2024/03/17 10:22:05;;;;;;;18.90;3.15;;;11.80;1.00;;;;;;5057963;28;20196;-86
2024/03/17 10:24:31;;;;;;;14.60;3.50;;;11.90;1.00;;;;;;5059224;28;20243;-87
2024/03/17 10:26:58;;;;;;;15.05;3.10;;;11.90;1.00;;;;;;5059531;28;20201;-86
2024/03/17 10:29:37;;;;;;;18.02;3.85;;;12.00;1.00;;;;;;5077482;28;20172;-86
2024/03/17 10:32:04;;;;;;;18.08;3.65;;;12.10;1.00;;;;;;5061218;28;20200;-86
2024/03/17 10:34:35;;;;;;;15.77;3.42;;;12.20;1.00;;;;;;5084112;28;20168;-86
2024/03/17 10:37:10;;;;;;;15.23;3.58;;;12.20;1.00;;;;;;5065575;28;20176;-87
2024/03/17 10:39:37;;;;;;;15.00;3.40;;;12.30;1.00;;;;;;5065295;28;20179;-87
2024/03/17 10:42:05;;;;;;;18.83;3.28;;;12.30;1.00;;;;;;5065376;28;20683;-87
2024/03/17 10:44:36;;;;;;;14.57;2.78;;;12.30;1.00;;;;;;5082579;28;20172;-87
2024/03/17 10:47:03;;;;;;;14.38;3.45;;;12.40;1.00;;;;;;5066891;28;20569;-87
2024/03/17 10:49:35;;;;;;;15.55;3.63;;;12.70;1.00;;;;;;5069252;28;20168;-87
2024/03/17 10:52:19;;;;;;;16.05;2.97;;;12.90;1.00;;;;;;5069252;28;20204;-87
2024/03/17 10:54:53;;;;;;;14.57;2.58;;;13.10;1.00;;;;;;5086746;28;20149;-87
2024/03/17 10:57:34;;;;;;;14.50;2.70;;;12.80;1.00;;;;;;5087305;28;20144;-87
2024/03/17 11:00:04;;;;;;;14.70;3.50;;;12.80;1.00;;;;;;5069011;28;20955;-87
2024/03/17 11:02:38;;;;;;;16.93;3.40;;;12.90;1.00;;;;;;5069470;28;20430;-86
2024/03/17 11:05:06;;;;;;;15.15;2.55;;;12.90;1.00;;;;;;5068700;28;20406;-87
2024/03/17 11:07:32;;;;;;;15.18;3.28;;;12.90;1.00;;;;;;5086272;28;20160;-87
2024/03/17 11:10:00;;;;;;;17.57;3.20;;;13.10;1.00;;;;;;5067569;28;20164;-87
2024/03/17 11:12:42;;;;;;;15.40;3.10;;;13.30;1.00;;;;;;5085561;28;20496;-87
2024/03/17 11:15:20;;;;;;;16.10;3.33;;;13.60;1.00;;;;;;5068694;28;20862;-87
2024/03/17 11:17:53;;;;;;;15.70;3.07;;;14.00;1.00;;;;;;5068696;28;20417;-87
2024/03/17 11:20:25;;;;;;;16.63;3.73;;;14.00;1.00;;;;;;5067108;28;20399;-87
2024/03/17 11:22:52;;;;;;;13.97;2.93;;;14.10;1.00;;;;;;5067626;28;20415;-87
2024/03/17 11:25:30;;;;;;;17.53;3.70;;;14.40;1.00;;;;;;5084079;28;20409;-86
2024/03/17 11:27:57;;;;;;;16.10;2.77;;;14.50;1.00;;;;;;5083692;28;20406;-86
2024/03/17 11:30:47;;;;;;;14.60;3.37;;;14.40;1.00;;;;;;5084326;28;20442;-86
2024/03/17 11:33:37;;;;;;;14.60;3.13;;;14.20;1.00;;;;;;5066840;28;20444;-86
2024/03/17 11:36:29;;;;;;;18.00;3.00;;;14.30;1.00;;;;;;5066635;28;20427;-87
2024/03/17 11:39:17;;;;;;;16.13;2.60;;;14.40;1.00;;;;;;5077873;28;20446;-86
2024/03/17 11:41:47;;;;;;;16.47;3.23;;;14.40;1.00;;;;;;5066737;28;20430;-86
2024/03/17 11:44:23;;;;;;;16.77;3.40;;;14.40;1.00;;;;;;5066840;28;20414;-87
2024/03/17 11:47:03;;;;;;;15.67;3.00;;;14.50;1.00;;;;;;5067097;28;20413;-87
2024/03/17 11:49:38;;;;;;;15.07;3.00;;;14.40;1.00;;;;;;5085088;28;20402;-87
2024/03/17 11:52:18;;;;;;;19.40;4.00;;;14.30;1.00;;;;;;5065937;28;20458;-87
2024/03/17 11:54:49;;;;;;;19.17;3.53;;;14.60;1.00;;;;;;5082000;28;20402;-86
2024/03/17 11:57:23;;;;;;;15.10;3.13;;;14.60;1.00;;;;;;5062692;28;20406;-86
2024/03/17 11:59:49;;;;;;;19.87;4.13;;;14.80;1.00;;;;;;5061545;28;20437;-86
2024/03/17 12:02:21;;;;;;;15.73;3.57;;;14.90;1.00;;;;;;5061701;28;20491;-86
2024/03/17 12:04:48;;;;;;;15.50;3.37;;;14.60;1.00;;;;;;5062394;28;20411;-86
2024/03/17 12:07:23;;;;;;;15.63;3.20;;;14.30;1.00;;;;;;5061789;28;20425;-86
2024/03/17 12:09:50;;;;;;;14.77;3.37;;;14.30;1.00;;;;;;5060680;28;20402;-86
2024/03/17 12:12:21;;;;;;;14.83;3.77;;;14.10;1.00;;;;;;5079701;28;20520;-86
2024/03/17 12:14:48;;;;;;;16.83;2.70;;;14.10;1.00;;;;;;5080382;28;20390;-86
2024/03/17 12:17:22;;;;;;;14.70;3.33;;;13.90;1.00;;;;;;5063783;28;20411;-86
2024/03/17 12:19:48;;;;;;;16.20;3.60;;;13.90;1.00;;;;;;5079907;28;20403;-86
2024/03/17 12:22:24;;;;;;;16.00;3.63;;;13.90;1.00;;;;;;5079305;28;20800;-86
2024/03/17 12:24:55;;;;;;;18.20;3.97;;;13.80;1.00;;;;;;5080780;28;20383;-86
2024/03/17 12:27:23;;;;;;;14.60;3.30;;;13.90;1.00;;;;;;5061590;28;20505;-86
2024/03/17 12:29:53;;;;;;;16.80;3.70;;;14.00;1.00;;;;;;5079901;28;20490;-86
2024/03/17 12:32:23;;;;;;;14.50;3.03;;;14.10;1.00;;;;;;5080042;28;20443;-86
2024/03/17 12:34:54;;;;;;;14.93;3.70;;;14.10;1.00;;;;;;5062435;28;20414;-86
2024/03/17 12:37:22;;;;;;;19.83;2.80;;;14.00;1.00;;;;;;5061304;28;20414;-86
2024/03/17 12:39:48;;;;;;;13.57;2.40;;;13.90;1.00;;;;;;5061472;28;20410;-86
2024/03/17 12:42:23;;;;;;;19.13;3.33;;;13.80;1.00;;;;;;5080136;28;20419;-86
2024/03/17 12:44:56;;;;;;;14.83;2.83;;;13.90;1.00;;;;;;5078812;28;20406;-86
2024/03/17 12:47:23;;;;;;;15.13;3.27;;;14.00;1.00;;;;;;5079665;28;20990;-86
2024/03/17 12:49:57;;;;;;;17.40;3.00;;;14.10;1.00;;;;;;5079034;28;20403;-86
2024/03/17 12:52:27;;;;;;;14.27;2.80;;;14.00;1.00;;;;;;5061116;28;20540;-86